Terminal Aerodrome Forecast
Issued by NWS

Home | Current Version | Previous Version | Text Only | Print | Product List | Glossary On
Versions: 1 2 3 4 5 6 7 8 9 10 11 12
138
FTUS46 KSTO 220520
TAFMHR
TAF
KMHR 220520Z 2206/2306 14004KT P6SM SCT150 BKN200
     FM221200 VRB04KT P6SM SCT150 SCT200
     FM222000 22006KT P6SM FEW250=

USA.gov is the U.S. government's official web portal to all federal, state and local government web resources and services.